sensor_id;sensor_type;location;lat;lon;timestamp;pressure;altitude;pressure_sealevel;temperature;humidity
36380;BME280;22411;53.016;18.632;2023-05-02T00:01:34;100480.06;;;10.10;100.00
36380;BME280;22411;53.016;18.632;2023-05-02T00:04:19;100483.50;;;10.10;100.00
36380;BME280;22411;53.016;18.632;2023-05-02T00:07:04;100487.03;;;10.09;100.00
36380;BME280;22411;53.016;18.632;2023-05-02T00:09:48;100480.91;;;10.10;100.00
36380;BME280;22411;53.016;18.632;2023-05-02T00:12:33;100474.19;;;10.08;100.00
36380;BME280;22411;53.016;18.632;2023-05-02T00:15:18;100468.25;;;10.06;100.00
36380;BME280;22411;53.016;18.632;2023-05-02T00:18:03;100469.72;;;10.10;100.00
36380;BME280;22411;53.016;18.632;2023-05-02T00:20:49;100459.25;;;10.11;100.00
36380;BME280;22411;53.016;18.632;2023-05-02T00:23:33;100455.84;;;10.11;100.00
36380;BME280;22411;53.016;18.632;2023-05-02T00:26:17;100449.84;;;10.10;100.00
36380;BME280;22411;53.016;18.632;2023-05-02T00:29:02;100453.25;;;10.11;100.00
36380;BME280;22411;53.016;18.632;2023-05-02T00:31:47;100453.34;;;10.09;100.00
36380;BME280;22411;53.016;18.632;2023-05-02T00:34:32;100446.59;;;10.07;100.00
36380;BME280;22411;53.016;18.632;2023-05-02T00:37:17;100446.59;;;10.07;100.00
36380;BME280;22411;53.016;18.632;2023-05-02T00:40:01;100443.59;;;10.00;100.00
36380;BME280;22411;53.016;18.632;2023-05-02T00:42:46;100440.72;;;9.92;100.00
36380;BME280;22411;53.016;18.632;2023-05-02T00:45:30;100436.84;;;9.85;100.00
36380;BME280;22411;53.016;18.632;2023-05-02T00:48:15;100429.31;;;9.82;100.00
36380;BME280;22411;53.016;18.632;2023-05-02T00:51:04;100430.84;;;9.84;100.00
36380;BME280;22411;53.016;18.632;2023-05-02T00:53:49;100432.09;;;9.79;100.00
36380;BME280;22411;53.016;18.632;2023-05-02T00:56:34;100426.91;;;9.79;100.00
36380;BME280;22411;53.016;18.632;2023-05-02T00:59:19;100428.56;;;9.80;100.00
36380;BME280;22411;53.016;18.632;2023-05-02T01:05:20;100423.28;;;9.68;100.00
36380;BME280;22411;53.016;18.632;2023-05-02T01:08:19;100422.84;;;9.62;100.00
36380;BME280;22411;53.016;18.632;2023-05-02T01:11:14;100416.22;;;9.58;100.00
36380;BME280;22411;53.016;18.632;2023-05-02T01:14:04;100418.91;;;9.56;100.00
36380;BME280;22411;53.016;18.632;2023-05-02T01:16:49;100423.44;;;9.53;100.00
36380;BME280;22411;53.016;18.632;2023-05-02T01:19:38;100419.09;;;9.53;100.00
36380;BME280;22411;53.016;18.632;2023-05-02T01:22:27;100414.75;;;9.54;100.00
36380;BME280;22411;53.016;18.632;2023-05-02T01:25:28;100417.56;;;9.51;100.00
36380;BME280;22411;53.016;18.632;2023-05-02T01:28:46;100418.28;;;9.53;100.00
36380;BME280;22411;53.016;18.632;2023-05-02T01:31:27;100415.09;;;9.49;100.00
36380;BME280;22411;53.016;18.632;2023-05-02T01:34:17;100422.09;;;9.47;100.00
36380;BME280;22411;53.016;18.632;2023-05-02T01:37:02;100412.97;;;9.41;100.00
36380;BME280;22411;53.016;18.632;2023-05-02T01:39:49;100416.50;;;9.40;100.00
36380;BME280;22411;53.016;18.632;2023-05-02T01:42:35;100415.66;;;9.40;100.00
36380;BME280;22411;53.016;18.632;2023-05-02T01:45:21;100418.34;;;9.38;100.00
36380;BME280;22411;53.016;18.632;2023-05-02T01:48:08;100411.72;;;9.34;100.00
36380;BME280;22411;53.016;18.632;2023-05-02T01:50:55;100398.25;;;9.29;100.00
36380;BME280;22411;53.016;18.632;2023-05-02T01:53:41;100401.56;;;9.31;100.00
36380;BME280;22411;53.016;18.632;2023-05-02T01:56:28;100394.09;;;9.27;100.00
36380;BME280;22411;53.016;18.632;2023-05-02T01:59:18;100393.38;;;9.25;100.00
36380;BME280;22411;53.016;18.632;2023-05-02T02:02:04;100396.91;;;9.24;100.00
36380;BME280;22411;53.016;18.632;2023-05-02T02:04:50;100395.31;;;9.21;100.00
36380;BME280;22411;53.016;18.632;2023-05-02T02:07:37;100397.19;;;9.19;100.00
36380;BME280;22411;53.016;18.632;2023-05-02T02:10:22;100391.38;;;9.15;100.00
36380;BME280;22411;53.016;18.632;2023-05-02T02:13:17;100390.72;;;9.12;100.00
36380;BME280;22411;53.016;18.632;2023-05-02T02:16:03;100387.25;;;9.13;100.00
36380;BME280;22411;53.016;18.632;2023-05-02T02:18:49;100388.38;;;9.09;100.00
36380;BME280;22411;53.016;18.632;2023-05-02T02:21:34;100382.97;;;9.12;100.00
36380;BME280;22411;53.016;18.632;2023-05-02T02:24:21;100386.59;;;9.09;100.00
36380;BME280;22411;53.016;18.632;2023-05-02T02:27:05;100382.97;;;9.12;100.00
36380;BME280;22411;53.016;18.632;2023-05-02T02:29:50;100383.91;;;9.11;100.00
36380;BME280;22411;53.016;18.632;2023-05-02T02:32:34;100376.78;;;9.14;100.00
36380;BME280;22411;53.016;18.632;2023-05-02T02:35:21;100381.03;;;9.15;100.00
36380;BME280;22411;53.016;18.632;2023-05-02T02:38:13;100374.94;;;9.16;100.00
36380;BME280;22411;53.016;18.632;2023-05-02T02:41:22;100381.84;;;9.16;100.00
36380;BME280;22411;53.016;18.632;2023-05-02T02:44:25;100380.84;;;9.19;100.00
36380;BME280;22411;53.016;18.632;2023-05-02T02:50:29;100377.97;;;9.23;100.00
36380;BME280;22411;53.016;18.632;2023-05-02T02:53:24;100374.44;;;9.24;100.00
36380;BME280;22411;53.016;18.632;2023-05-02T02:56:15;100374.44;;;9.24;100.00
36380;BME280;22411;53.016;18.632;2023-05-02T02:59:14;100371.75;;;9.26;100.00
36380;BME280;22411;53.016;18.632;2023-05-02T03:02:08;100375.06;;;9.28;100.00
36380;BME280;22411;53.016;18.632;2023-05-02T03:04:56;100383.47;;;9.31;100.00
36380;BME280;22411;53.016;18.632;2023-05-02T03:07:40;100378.19;;;9.33;100.00
36380;BME280;22411;53.016;18.632;2023-05-02T03:10:25;100376.63;;;9.30;100.00
36380;BME280;22411;53.016;18.632;2023-05-02T03:13:09;100370.63;;;9.30;100.00
36380;BME280;22411;53.016;18.632;2023-05-02T03:18:40;100374.03;;;9.30;100.00
36380;BME280;22411;53.016;18.632;2023-05-02T03:21:24;100376.63;;;9.30;100.00
36380;BME280;22411;53.016;18.632;2023-05-02T03:24:09;100371.28;;;9.33;100.00
36380;BME280;22411;53.016;18.632;2023-05-02T03:26:57;100374.69;;;9.34;100.00
36380;BME280;22411;53.016;18.632;2023-05-02T03:29:42;100387.41;;;9.37;100.00
36380;BME280;22411;53.016;18.632;2023-05-02T03:32:26;100386.38;;;9.39;100.00
36380;BME280;22411;53.016;18.632;2023-05-02T03:35:10;100382.56;;;9.45;100.00
36380;BME280;22411;53.016;18.632;2023-05-02T03:37:54;100385.28;;;9.56;100.00
36380;BME280;22411;53.016;18.632;2023-05-02T03:40:40;100390.22;;;9.59;100.00
36380;BME280;22411;53.016;18.632;2023-05-02T03:43:24;100393.47;;;9.63;100.00
36380;BME280;22411;53.016;18.632;2023-05-02T03:46:09;100400.09;;;9.67;100.00
36380;BME280;22411;53.016;18.632;2023-05-02T03:48:56;100403.09;;;9.74;100.00
36380;BME280;22411;53.016;18.632;2023-05-02T03:51:41;100400.00;;;9.81;100.00
36380;BME280;22411;53.016;18.632;2023-05-02T03:54:25;100402.91;;;9.89;100.00
36380;BME280;22411;53.016;18.632;2023-05-02T03:57:10;100411.09;;;9.96;100.00
36380;BME280;22411;53.016;18.632;2023-05-02T03:59:55;100417.94;;;9.97;100.00
36380;BME280;22411;53.016;18.632;2023-05-02T04:02:39;100418.75;;;9.98;100.00
36380;BME280;22411;53.016;18.632;2023-05-02T04:05:24;100423.41;;;10.05;100.00
36380;BME280;22411;53.016;18.632;2023-05-02T04:08:09;100430.06;;;10.09;100.00
36380;BME280;22411;53.016;18.632;2023-05-02T04:10:53;100433.88;;;10.16;100.00
36380;BME280;22411;53.016;18.632;2023-05-02T04:13:37;100427.28;;;10.25;100.00
36380;BME280;22411;53.016;18.632;2023-05-02T04:16:22;100417.56;;;10.29;100.00
36380;BME280;22411;53.016;18.632;2023-05-02T04:19:07;100420.44;;;10.37;100.00
36380;BME280;22411;53.016;18.632;2023-05-02T04:21:51;100422.41;;;10.46;100.00
36380;BME280;22411;53.016;18.632;2023-05-02T04:24:36;100421.84;;;10.54;100.00
36380;BME280;22411;53.016;18.632;2023-05-02T04:27:21;100420.50;;;10.61;100.00
36380;BME280;22411;53.016;18.632;2023-05-02T04:30:05;100423.59;;;10.66;100.00
36380;BME280;22411;53.016;18.632;2023-05-02T04:32:50;100421.53;;;10.71;100.00
36380;BME280;22411;53.016;18.632;2023-05-02T04:35:34;100427.22;;;10.76;100.00
36380;BME280;22411;53.016;18.632;2023-05-02T04:38:18;100428.53;;;10.82;100.00
36380;BME280;22411;53.016;18.632;2023-05-02T04:41:03;100430.81;;;10.86;100.00
36380;BME280;22411;53.016;18.632;2023-05-02T04:43:47;100428.22;;;10.86;100.00
36380;BME280;22411;53.016;18.632;2023-05-02T04:46:31;100428.69;;;10.91;100.00
36380;BME280;22411;53.016;18.632;2023-05-02T04:49:15;100436.78;;;10.99;100.00
36380;BME280;22411;53.016;18.632;2023-05-02T04:52:00;100437.59;;;11.00;100.00
36380;BME280;22411;53.016;18.632;2023-05-02T04:54:45;100439.53;;;11.09;100.00
36380;BME280;22411;53.016;18.632;2023-05-02T04:57:29;100441.38;;;11.20;100.00
36380;BME280;22411;53.016;18.632;2023-05-02T05:00:14;100428.56;;;11.30;100.00
36380;BME280;22411;53.016;18.632;2023-05-02T05:02:59;100434.75;;;11.40;100.00
36380;BME280;22411;53.016;18.632;2023-05-02T05:05:43;100440.91;;;11.50;100.00
36380;BME280;22411;53.016;18.632;2023-05-02T05:08:27;100441.16;;;11.58;100.00
36380;BME280;22411;53.016;18.632;2023-05-02T05:11:12;100446.72;;;11.65;100.00
36380;BME280;22411;53.016;18.632;2023-05-02T05:13:57;100453.59;;;11.66;100.00
36380;BME280;22411;53.016;18.632;2023-05-02T05:16:41;100445.81;;;11.66;100.00
36380;BME280;22411;53.016;18.632;2023-05-02T05:19:26;100454.44;;;11.66;100.00
36380;BME280;22411;53.016;18.632;2023-05-02T05:22:11;100451.00;;;11.66;100.00
36380;BME280;22411;53.016;18.632;2023-05-02T05:24:55;100450.88;;;11.67;100.00
36380;BME280;22411;53.016;18.632;2023-05-02T05:27:40;100454.91;;;11.71;100.00
36380;BME280;22411;53.016;18.632;2023-05-02T05:30:24;100463.06;;;11.78;100.00
36380;BME280;22411;53.016;18.632;2023-05-02T05:33:08;100466.31;;;11.82;100.00
36380;BME280;22411;53.016;18.632;2023-05-02T05:35:52;100468.78;;;11.83;100.00
36380;BME280;22411;53.016;18.632;2023-05-02T05:38:37;100471.38;;;11.83;100.00
36380;BME280;22411;53.016;18.632;2023-05-02T05:41:22;100473.31;;;11.92;100.00
36380;BME280;22411;53.016;18.632;2023-05-02T05:44:07;100474.16;;;12.04;100.00
36380;BME280;22411;53.016;18.632;2023-05-02T05:46:51;100470.13;;;12.11;100.00
36380;BME280;22411;53.016;18.632;2023-05-02T05:49:35;100466.84;;;12.20;100.00
36380;BME280;22411;53.016;18.632;2023-05-02T05:52:20;100472.28;;;12.28;100.00
36380;BME280;22411;53.016;18.632;2023-05-02T05:55:05;100476.22;;;12.34;100.00
36380;BME280;22411;53.016;18.632;2023-05-02T05:57:50;100480.34;;;12.37;100.00
36380;BME280;22411;53.016;18.632;2023-05-02T06:00:35;100481.16;;;12.37;100.00
36380;BME280;22411;53.016;18.632;2023-05-02T06:03:19;100476.56;;;12.29;100.00
36380;BME280;22411;53.016;18.632;2023-05-02T06:06:03;100500.44;;;12.35;100.00
36380;BME280;22411;53.016;18.632;2023-05-02T06:08:48;100497.00;;;12.34;100.00
36380;BME280;22411;53.016;18.632;2023-05-02T06:11:32;100505.63;;;12.35;100.00
36380;BME280;22411;53.016;18.632;2023-05-02T06:14:16;100502.31;;;12.33;100.00
36380;BME280;22411;53.016;18.632;2023-05-02T06:17:02;100503.03;;;12.23;100.00
36380;BME280;22411;53.016;18.632;2023-05-02T06:19:46;100496.06;;;12.35;100.00
36380;BME280;22411;53.016;18.632;2023-05-02T06:22:31;100505.88;;;12.43;100.00
36380;BME280;22411;53.016;18.632;2023-05-02T06:25:15;100496.66;;;12.50;100.00
36380;BME280;22411;53.016;18.632;2023-05-02T06:27:59;100511.06;;;12.65;100.00
36380;BME280;22411;53.016;18.632;2023-05-02T06:30:44;100507.28;;;12.69;100.00
36380;BME280;22411;53.016;18.632;2023-05-02T06:33:29;100536.38;;;12.74;100.00
36380;BME280;22411;53.016;18.632;2023-05-02T06:36:14;100530.69;;;12.80;100.00
36380;BME280;22411;53.016;18.632;2023-05-02T06:38:58;100540.19;;;12.81;100.00
36380;BME280;22411;53.016;18.632;2023-05-02T06:41:43;100537.91;;;12.99;100.00
36380;BME280;22411;53.016;18.632;2023-05-02T06:44:27;100539.53;;;13.12;100.00
36380;BME280;22411;53.016;18.632;2023-05-02T06:47:13;100534.69;;;13.07;100.00
36380;BME280;22411;53.016;18.632;2023-05-02T06:49:57;100541.69;;;12.95;100.00
36380;BME280;22411;53.016;18.632;2023-05-02T06:52:41;100536.00;;;13.01;100.00
36380;BME280;22411;53.016;18.632;2023-05-02T06:55:26;100531.63;;;13.13;100.00
36380;BME280;22411;53.016;18.632;2023-05-02T06:58:11;100531.41;;;13.05;100.00
36380;BME280;22411;53.016;18.632;2023-05-02T07:00:55;100543.91;;;13.11;100.00
36380;BME280;22411;53.016;18.632;2023-05-02T07:03:39;100554.94;;;13.03;100.00
36380;BME280;22411;53.016;18.632;2023-05-02T07:06:23;100557.31;;;12.95;100.00
36380;BME280;22411;53.016;18.632;2023-05-02T07:09:08;100563.69;;;12.80;100.00
36380;BME280;22411;53.016;18.632;2023-05-02T07:11:52;100571.94;;;12.63;100.00
36380;BME280;22411;53.016;18.632;2023-05-02T07:14:36;100574.66;;;12.50;100.00
36380;BME280;22411;53.016;18.632;2023-05-02T07:17:20;100586.59;;;12.52;100.00
36380;BME280;22411;53.016;18.632;2023-05-02T07:20:05;100589.78;;;12.45;100.00
36380;BME280;22411;53.016;18.632;2023-05-02T07:22:51;100585.63;;;12.42;100.00
36380;BME280;22411;53.016;18.632;2023-05-02T07:25:36;100605.44;;;12.32;100.00
36380;BME280;22411;53.016;18.632;2023-05-02T07:28:21;100606.59;;;12.28;100.00
36380;BME280;22411;53.016;18.632;2023-05-02T07:31:05;100605.69;;;12.29;100.00
36380;BME280;22411;53.016;18.632;2023-05-02T07:33:50;100607.16;;;12.20;100.00
36380;BME280;22411;53.016;18.632;2023-05-02T07:36:34;100610.81;;;12.18;100.00
36380;BME280;22411;53.016;18.632;2023-05-02T07:39:18;100603.97;;;12.17;100.00
36380;BME280;22411;53.016;18.632;2023-05-02T07:42:02;100615.13;;;12.06;100.00
36380;BME280;22411;53.016;18.632;2023-05-02T07:44:47;100612.16;;;11.99;100.00
36380;BME280;22411;53.016;18.632;2023-05-02T07:47:31;100616.56;;;11.86;100.00
36380;BME280;22411;53.016;18.632;2023-05-02T07:50:15;100626.75;;;11.89;100.00
36380;BME280;22411;53.016;18.632;2023-05-02T07:52:59;100628.03;;;11.84;100.00
36380;BME280;22411;53.016;18.632;2023-05-02T07:55:44;100632.69;;;11.78;100.00
36380;BME280;22411;53.016;18.632;2023-05-02T07:58:28;100631.34;;;11.73;100.00
36380;BME280;22411;53.016;18.632;2023-05-02T08:01:12;100631.22;;;11.74;100.00
36380;BME280;22411;53.016;18.632;2023-05-02T08:03:56;100637.50;;;11.72;100.00
36380;BME280;22411;53.016;18.632;2023-05-02T08:06:42;100635.41;;;11.77;100.00
36380;BME280;22411;53.016;18.632;2023-05-02T08:09:27;100634.34;;;11.79;100.00
36380;BME280;22411;53.016;18.632;2023-05-02T08:12:12;100639.53;;;11.92;100.00
36380;BME280;22411;53.016;18.632;2023-05-02T08:14:57;100639.66;;;12.02;100.00
36380;BME280;22411;53.016;18.632;2023-05-02T08:17:42;100644.38;;;12.21;100.00
36380;BME280;22411;53.016;18.632;2023-05-02T08:20:27;100642.91;;;12.41;100.00
36380;BME280;22411;53.016;18.632;2023-05-02T08:23:11;100651.84;;;12.61;100.00
36380;BME280;22411;53.016;18.632;2023-05-02T08:25:55;100657.75;;;12.63;100.00
36380;BME280;22411;53.016;18.632;2023-05-02T08:28:39;100650.31;;;12.69;100.00
36380;BME280;22411;53.016;18.632;2023-05-02T08:31:23;100645.72;;;12.84;100.00
36380;BME280;22411;53.016;18.632;2023-05-02T08:34:07;100659.00;;;13.03;100.00
36380;BME280;22411;53.016;18.632;2023-05-02T08:36:51;100663.31;;;13.27;100.00
36380;BME280;22411;53.016;18.632;2023-05-02T08:39:35;100661.06;;;13.56;100.00
36380;BME280;22411;53.016;18.632;2023-05-02T08:42:20;100663.72;;;13.88;100.00
36380;BME280;22411;53.016;18.632;2023-05-02T08:45:05;100674.31;;;14.19;100.00
36380;BME280;22411;53.016;18.632;2023-05-02T08:47:52;100667.22;;;14.42;100.00
36380;BME280;22411;53.016;18.632;2023-05-02T08:50:42;100673.91;;;14.76;100.00
36380;BME280;22411;53.016;18.632;2023-05-02T08:53:31;100672.53;;;15.24;100.00
36380;BME280;22411;53.016;18.632;2023-05-02T08:56:17;100681.25;;;15.64;100.00
36380;BME280;22411;53.016;18.632;2023-05-02T08:59:02;100676.06;;;15.84;100.00
36380;BME280;22411;53.016;18.632;2023-05-02T09:01:48;100676.41;;;16.19;100.00
36380;BME280;22411;53.016;18.632;2023-05-02T09:04:40;100689.88;;;16.63;100.00
36380;BME280;22411;53.016;18.632;2023-05-02T09:07:25;100693.97;;;16.95;100.00
36380;BME280;22411;53.016;18.632;2023-05-02T09:10:10;100686.00;;;17.34;100.00
36380;BME280;22411;53.016;18.632;2023-05-02T09:13:32;100692.00;;;17.81;100.00
36380;BME280;22411;53.016;18.632;2023-05-02T09:16:22;100687.69;;;18.08;100.00
36380;BME280;22411;53.016;18.632;2023-05-02T09:19:06;100692.66;;;18.46;100.00
36380;BME280;22411;53.016;18.632;2023-05-02T09:21:51;100697.81;;;18.74;95.43
36380;BME280;22411;53.016;18.632;2023-05-02T09:24:37;100699.63;;;18.73;91.54
36380;BME280;22411;53.016;18.632;2023-05-02T09:27:22;100701.75;;;18.60;89.79
36380;BME280;22411;53.016;18.632;2023-05-02T09:30:20;100708.22;;;18.48;90.68
36380;BME280;22411;53.016;18.632;2023-05-02T09:33:04;100711.16;;;18.63;89.69
36380;BME280;22411;53.016;18.632;2023-05-02T09:35:54;100711.00;;;19.08;87.59
36380;BME280;22411;53.016;18.632;2023-05-02T09:38:43;100717.47;;;19.22;83.82
36380;BME280;22411;53.016;18.632;2023-05-02T09:41:38;100717.94;;;19.77;79.34
36380;BME280;22411;53.016;18.632;2023-05-02T09:44:25;100718.63;;;19.53;78.00
36380;BME280;22411;53.016;18.632;2023-05-02T09:47:09;100726.00;;;19.84;78.79
36380;BME280;22411;53.016;18.632;2023-05-02T09:49:53;100720.81;;;20.17;74.30
36380;BME280;22411;53.016;18.632;2023-05-02T09:52:38;100721.22;;;20.62;73.34
36380;BME280;22411;53.016;18.632;2023-05-02T09:55:22;100723.66;;;21.05;65.18
36380;BME280;22411;53.016;18.632;2023-05-02T09:58:20;100729.72;;;21.22;64.38
36380;BME280;22411;53.016;18.632;2023-05-02T10:01:05;100727.75;;;21.15;63.23
36380;BME280;22411;53.016;18.632;2023-05-02T10:03:50;100727.38;;;21.35;60.17
36380;BME280;22411;53.016;18.632;2023-05-02T10:06:35;100731.47;;;21.46;56.41
36380;BME280;22411;53.016;18.632;2023-05-02T10:09:22;100739.72;;;21.82;56.84
36380;BME280;22411;53.016;18.632;2023-05-02T10:12:06;100734.31;;;21.83;58.09
36380;BME280;22411;53.016;18.632;2023-05-02T10:14:56;100732.84;;;22.35;56.17
36380;BME280;22411;53.016;18.632;2023-05-02T10:17:47;100749.53;;;21.65;51.28
36380;BME280;22411;53.016;18.632;2023-05-02T10:20:43;100746.94;;;21.57;55.77
36380;BME280;22411;53.016;18.632;2023-05-02T10:23:32;100755.78;;;20.68;50.02
36380;BME280;22411;53.016;18.632;2023-05-02T10:26:17;100749.19;;;20.63;51.54
36380;BME280;22411;53.016;18.632;2023-05-02T10:29:04;100745.72;;;20.71;51.62
36380;BME280;22411;53.016;18.632;2023-05-02T10:31:48;100748.53;;;20.61;52.63
36380;BME280;22411;53.016;18.632;2023-05-02T10:34:35;100751.66;;;20.81;54.36
36380;BME280;22411;53.016;18.632;2023-05-02T10:37:19;100750.47;;;21.08;54.32
36380;BME280;22411;53.016;18.632;2023-05-02T10:40:08;100754.31;;;20.89;48.47
36380;BME280;22411;53.016;18.632;2023-05-02T10:42:53;100746.09;;;20.68;49.07
36380;BME280;22411;53.016;18.632;2023-05-02T10:45:38;100752.34;;;20.67;50.56
36380;BME280;22411;53.016;18.632;2023-05-02T10:48:23;100755.94;;;20.58;51.63
36380;BME280;22411;53.016;18.632;2023-05-02T10:51:08;100755.66;;;20.02;55.63
36380;BME280;22411;53.016;18.632;2023-05-02T10:54:18;100759.47;;;20.24;57.08
36380;BME280;22411;53.016;18.632;2023-05-02T10:57:06;100768.53;;;20.22;56.68
36380;BME280;22411;53.016;18.632;2023-05-02T10:59:51;100764.75;;;20.16;53.15
36380;BME280;22411;53.016;18.632;2023-05-02T11:05:27;100756.31;;;20.04;53.28
36380;BME280;22411;53.016;18.632;2023-05-02T11:14:41;100771.97;;;18.94;57.67
36380;BME280;22411;53.016;18.632;2023-05-02T11:17:26;100771.81;;;18.95;59.58
36380;BME280;22411;53.016;18.632;2023-05-02T11:26:20;100787.28;;;18.98;54.23
36380;BME280;22411;53.016;18.632;2023-05-02T11:29:09;100784.44;;;19.18;54.64
36380;BME280;22411;53.016;18.632;2023-05-02T11:31:54;100794.63;;;19.65;51.66
36380;BME280;22411;53.016;18.632;2023-05-02T11:34:40;100790.47;;;19.88;50.86
36380;BME280;22411;53.016;18.632;2023-05-02T11:37:25;100791.94;;;19.56;51.82
36380;BME280;22411;53.016;18.632;2023-05-02T11:40:13;100796.66;;;19.53;52.29
36380;BME280;22411;53.016;18.632;2023-05-02T11:42:58;100788.97;;;19.33;52.14
36380;BME280;22411;53.016;18.632;2023-05-02T11:45:43;100801.19;;;19.43;53.10
36380;BME280;22411;53.016;18.632;2023-05-02T11:48:29;100801.31;;;19.59;51.15
36380;BME280;22411;53.016;18.632;2023-05-02T11:51:21;100799.59;;;19.76;49.44
36380;BME280;22411;53.016;18.632;2023-05-02T11:54:06;100811.84;;;19.59;48.70
36380;BME280;22411;53.016;18.632;2023-05-02T11:56:50;100808.28;;;19.68;48.72
36380;BME280;22411;53.016;18.632;2023-05-02T11:59:56;100803.81;;;20.03;47.32
36380;BME280;22411;53.016;18.632;2023-05-02T12:02:44;100810.84;;;20.36;45.66
36380;BME280;22411;53.016;18.632;2023-05-02T12:05:30;100810.94;;;20.85;44.56
36380;BME280;22411;53.016;18.632;2023-05-02T12:08:22;100811.75;;;20.70;43.92
36380;BME280;22411;53.016;18.632;2023-05-02T12:11:07;100815.72;;;21.14;43.90
36380;BME280;22411;53.016;18.632;2023-05-02T12:13:53;100823.00;;;20.37;44.10
36380;BME280;22411;53.016;18.632;2023-05-02T12:16:37;100814.75;;;20.24;45.10
36380;BME280;22411;53.016;18.632;2023-05-02T12:19:22;100815.25;;;19.77;46.39
36380;BME280;22411;53.016;18.632;2023-05-02T12:22:06;100822.59;;;20.08;46.04
36380;BME280;22411;53.016;18.632;2023-05-02T12:24:51;100824.59;;;19.80;47.22
36380;BME280;22411;53.016;18.632;2023-05-02T12:27:38;100833.81;;;19.58;48.26
36380;BME280;22411;53.016;18.632;2023-05-02T12:30:26;100831.56;;;19.37;47.44
36380;BME280;22411;53.016;18.632;2023-05-02T12:33:11;100834.94;;;19.29;48.28
36380;BME280;22411;53.016;18.632;2023-05-02T12:36:05;100844.50;;;19.56;48.09
36380;BME280;22411;53.016;18.632;2023-05-02T12:38:53;100837.84;;;19.62;48.60
36380;BME280;22411;53.016;18.632;2023-05-02T12:41:39;100840.38;;;19.80;49.10
36380;BME280;22411;53.016;18.632;2023-05-02T12:44:35;100845.00;;;19.86;48.24
36380;BME280;22411;53.016;18.632;2023-05-02T12:47:21;100843.28;;;20.03;48.88
36380;BME280;22411;53.016;18.632;2023-05-02T12:50:06;100853.44;;;19.90;47.00
36380;BME280;22411;53.016;18.632;2023-05-02T12:52:51;100849.66;;;19.66;48.95
36380;BME280;22411;53.016;18.632;2023-05-02T12:55:42;100854.97;;;19.74;48.62
36380;BME280;22411;53.016;18.632;2023-05-02T12:58:26;100849.19;;;19.71;48.62
36380;BME280;22411;53.016;18.632;2023-05-02T13:01:12;100857.28;;;19.51;49.49
36380;BME280;22411;53.016;18.632;2023-05-02T13:03:56;100869.84;;;19.40;50.23
36380;BME280;22411;53.016;18.632;2023-05-02T13:06:41;100876.75;;;19.41;51.18
36380;BME280;22411;53.016;18.632;2023-05-02T13:09:25;100871.72;;;19.47;51.77
36380;BME280;22411;53.016;18.632;2023-05-02T13:12:10;100862.25;;;19.80;51.69
36380;BME280;22411;53.016;18.632;2023-05-02T13:14:55;100869.00;;;19.83;50.57
36380;BME280;22411;53.016;18.632;2023-05-02T13:17:39;100870.06;;;19.98;50.61
36380;BME280;22411;53.016;18.632;2023-05-02T13:20:24;100874.25;;;19.57;52.08
36380;BME280;22411;53.016;18.632;2023-05-02T13:23:08;100877.88;;;19.38;53.31
36380;BME280;22411;53.016;18.632;2023-05-02T13:25:52;100881.28;;;19.13;53.64
36380;BME280;22411;53.016;18.632;2023-05-02T13:28:36;100882.47;;;19.18;55.43
36380;BME280;22411;53.016;18.632;2023-05-02T13:31:21;100897.03;;;19.13;55.77
36380;BME280;22411;53.016;18.632;2023-05-02T13:34:05;100890.16;;;18.94;55.91
36380;BME280;22411;53.016;18.632;2023-05-02T13:36:50;100893.13;;;18.81;56.46
36380;BME280;22411;53.016;18.632;2023-05-02T13:39:34;100888.25;;;18.68;57.09
36380;BME280;22411;53.016;18.632;2023-05-02T13:42:18;100898.16;;;18.74;57.77
36380;BME280;22411;53.016;18.632;2023-05-02T13:45:03;100902.44;;;18.75;57.12
36380;BME280;22411;53.016;18.632;2023-05-02T13:47:49;100911.94;;;18.76;53.94
36380;BME280;22411;53.016;18.632;2023-05-02T13:50:33;100908.59;;;19.02;55.44
36380;BME280;22411;53.016;18.632;2023-05-02T13:53:20;100908.72;;;19.54;57.85
36380;BME280;22411;53.016;18.632;2023-05-02T13:56:04;100908.59;;;19.38;72.58
36380;BME280;22411;53.016;18.632;2023-05-02T13:58:49;100912.44;;;18.72;83.18
36380;BME280;22411;53.016;18.632;2023-05-02T14:01:33;100932.66;;;18.52;88.54
36380;BME280;22411;53.016;18.632;2023-05-02T14:04:17;100923.88;;;18.71;87.23
36380;BME280;22411;53.016;18.632;2023-05-02T14:07:02;100929.78;;;18.83;86.39
36380;BME280;22411;53.016;18.632;2023-05-02T14:09:46;100933.13;;;18.65;86.17
36380;BME280;22411;53.016;18.632;2023-05-02T14:12:30;100941.94;;;18.46;86.59
36380;BME280;22411;53.016;18.632;2023-05-02T14:15:15;100944.28;;;18.12;87.97
36380;BME280;22411;53.016;18.632;2023-05-02T14:18:00;100950.41;;;17.93;89.88
36380;BME280;22411;53.016;18.632;2023-05-02T14:20:44;100952.97;;;18.13;89.73
36380;BME280;22411;53.016;18.632;2023-05-02T14:23:28;100950.03;;;18.25;87.81
36380;BME280;22411;53.016;18.632;2023-05-02T14:26:12;100951.47;;;18.10;88.99
36380;BME280;22411;53.016;18.632;2023-05-02T14:28:57;100952.88;;;18.05;89.03
36380;BME280;22411;53.016;18.632;2023-05-02T14:31:41;100959.22;;;18.02;91.02
36380;BME280;22411;53.016;18.632;2023-05-02T14:34:25;100967.66;;;17.86;93.50
36380;BME280;22411;53.016;18.632;2023-05-02T14:37:10;100971.13;;;17.58;99.86